• Join FlightAware (Why Join?)
  • Login
  • US Flag 
01:48PM EST


 

Airport Tracker/Info


-or-


 

Live Flight TrackerFlight Track Log ✈ N978AC ✈ 12-Apr-2014 ✈ 3T5 - KBAZ

Flight Track Log - Related Links

Times and Time Zones

All times are in EDT time to prevent confusion due to time zone crossing. See the N978AC flight status page for this flight to view local times or setup timezone preferences in your user account.

Time Position Orientation Groundspeed Altitude Reporting Facility
EDT Latitude Longitude Course Direction KTS MPH feet Rate Location/Type
07:03PM 30.0239 -94.7083 260° West 75 86 1,800  Level Houston Center
07:04PM 30.0200 -94.7331 260° West 93 107 2,300 420 Climbing Houston Center
07:05PM 30.0208 -94.7433 275° West 77 89 2,500 480 Climbing Houston Center
07:05PM 30.0369 -94.7575 323° Northwest 108 124 2,800 360 Climbing Houston Center
07:06PM 30.0456 -94.7633 330° Northwest 106 122 2,900 300 Climbing Houston Center
07:06PM 30.0603 -94.7811 314° West 93 107 3,200 360 Climbing Houston Center
07:07PM 30.0658 -94.7842 335° Northwest 103 119 3,300 360 Climbing Houston Center
07:07PM 30.0792 -94.8028 310° West 97 112 3,600 480 Climbing Houston Center
07:08PM 30.0831 -94.8069 317° Northwest 99 114 3,800 540 Climbing Houston Center
07:08PM 30.0981 -94.8247 314° West 93 107 4,200 480 Climbing Houston Center
07:09PM 30.1056 -94.8317 321° Northwest 96 110 4,300 300 Climbing Houston Center
07:09PM 30.1164 -94.8417 321° Northwest 96 110 4,500 360 Climbing Houston Center
07:10PM 30.1269 -94.8517 321° Northwest 97 112 4,700 360 Climbing Houston Center
07:10PM 30.1353 -94.8633 310° West 98 113 4,900 240 Climbing Houston Center
07:11PM 30.1444 -94.8758 310° West 97 112 5,000 180 Climbing Houston Center
07:11PM 30.1547 -94.8900 310° West 103 119 5,100  Climbing Houston Center
07:12PM 30.1636 -94.9017 311° West 104 120 5,000  Descending Houston Center
07:12PM 30.1739 -94.9167 308° West 106 122 5,100 60 Climbing Houston Center
07:13PM 30.1828 -94.9275 314° West 105 121 5,100 -120 Level Houston Center
07:13PM 30.1933 -94.9433 308° West 102 117 5,000 -120 Descending Houston Center
07:14PM 30.2006 -94.9519 314° West 102 117 5,000  Level Houston Center
07:14PM 30.2081 -94.9656 303° West 102 117 5,000 360 Level Houston Center
07:15PM 30.2214 -94.9817 314° West 100 115 5,400 480 Climbing Houston Center
07:15PM 30.2294 -94.9919 312° West 84 97 5,600 360 Climbing Houston Center
07:16PM 30.2367 -94.9997 317° Northwest 85 98 5,800 420 Climbing Houston Center
07:16PM 30.2436 -95.0094 310° West 84 97 6,000 360 Climbing Houston Center
07:17PM 30.2533 -95.0206 315° West 85 98 6,200 300 Climbing Houston Center
07:17PM 30.2564 -95.0322 287° West 73 84 6,400 240 Climbing Houston Center
07:18PM 30.2583 -95.0411 284° West 71 82 6,500 180 Climbing Houston Center
07:18PM 30.2583 -95.0536 270° West 66 76 6,600 240 Climbing Houston Center
07:19PM 30.2597 -95.0622 281° West 66 76 6,800 240 Climbing Houston Center
07:19PM 30.2603 -95.0753 273° West 65 75 6,900 180 Climbing Houston Center
07:20PM 30.2617 -95.0833 281° West 66 76 7,000 240 Climbing Houston Center
07:20PM 30.2644 -95.0964 284° West 70 81 7,200 240 Climbing Houston Center
07:21PM 30.2669 -95.1067 286° West 73 84 7,300 240 Climbing Houston Center
07:22PM 30.2689 -95.1225 278° West 73 84 7,500 240 Climbing Houston Center
07:22PM 30.2719 -95.1339 287° West 73 84 7,600 240 Climbing Houston Center
07:23PM 30.2733 -95.1461 277° West 71 82 7,800 240 Climbing Houston Center
07:23PM 30.2747 -95.1564 279° West 73 84 7,900 180 Climbing Houston Center
07:24PM 30.2772 -95.1675 285° West 72 83 8,000 180 Climbing Houston Center
07:24PM 30.2794 -95.1803 281° West 73 84 8,100 60 Climbing Houston Center
07:25PM 30.2797 -95.1936 271° West 85 98 8,100  Level Houston Center
07:25PM 30.2814 -95.2069 278° West 83 96 8,100  Level Houston Center
07:26PM 30.2828 -95.2272 275° West 89 102 8,100  Level Houston Center
07:26PM 30.2833 -95.2358 274° West 86 99 8,100  Level Houston Center
07:27PM 30.2789 -95.2542 254° West 78 90 8,100  Level Houston Center
07:27PM 30.2775 -95.2622 259° West 87 100 8,100  Level Houston Center
07:28PM 30.2750 -95.2789 260° West 84 97 8,100 -120 Level Houston Center
07:28PM 30.2706 -95.2931 250° West 84 97 8,000  Descending Houston Center
07:29PM 30.2669 -95.3067 253° West 80 92 8,100 60 Climbing Houston Center
07:29PM 30.2658 -95.3167 263° West 81 93 8,100  Level Houston Center
07:30PM 30.2625 -95.3264 248° West 78 90 8,100  Level Houston Center
07:30PM 30.2606 -95.3406 261° West 80 92 8,100  Level Houston Center
07:31PM 30.2586 -95.3536 260° West 77 89 8,100  Level Houston Center
07:31PM 30.2581 -95.3669 267° West 80 92 8,100  Level Houston Center
07:32PM 30.2550 -95.3806 255° West 86 99 8,100  Level Houston Center
07:32PM 30.2531 -95.3931 260° West 81 93 8,100  Level Houston Center
07:33PM 30.2508 -95.4053 258° West 82 94 8,100  Level Houston Center
07:33PM 30.2492 -95.4192 262° West 81 93 8,100  Level Houston Center
07:34PM 30.2492 -95.4322 270° West 85 98 8,100  Level Houston Center
07:34PM 30.2461 -95.4472 257° West 86 99 8,100  Level Houston Center
07:35PM 30.2431 -95.4594 254° West 86 99 8,100 -120 Level Houston Center
07:36PM 30.2383 -95.4781 254° West 86 99 8,000 -120 Descending Houston Center
07:36PM 30.2372 -95.4867 262° West 82 94 8,000  Level Houston Center
07:37PM 30.2319 -95.5039 250° West 86 99 8,000  Level Houston Center
07:37PM 30.2311 -95.5117 263° West 84 97 8,000  Level Houston Center
07:38PM 30.2300 -95.5289 266° West 82 94 8,000  Level Houston Center
07:38PM 30.2272 -95.5386 252° West 81 93 8,000 60 Level Houston Center
07:39PM 30.2275 -95.5544 271° West 81 93 8,100 60 Climbing Houston Center
07:39PM 30.2253 -95.5656 257° West 74 85 8,100  Level Houston Center
07:40PM 30.2208 -95.5853 255° West 78 90 8,100  Level Houston Center
07:41PM 30.2194 -95.6039 265° West 79 91 8,100  Level Houston Center
07:41PM 30.2175 -95.6172 260° West 81 93 8,100  Level Houston Center
07:42PM 30.2139 -95.6278 248° West 80 92 8,100  Level Houston Center
07:42PM 30.2111 -95.6422 257° West 79 91 8,100  Level Houston Center
07:43PM 30.2100 -95.6592 266° West 80 92 8,100  Level Houston Center
07:43PM 30.2072 -95.6667 247° West 84 97 8,100  Level Houston Center
07:44PM 30.2056 -95.6867 264° West 82 94 8,100  Level Houston Center
07:44PM 30.2033 -95.6961 255° West 86 99 8,100  Level Houston Center
07:45PM 30.1994 -95.7208 260° West 79 91 8,100  Level Houston Center
07:46PM 30.1953 -95.7456 259° West 81 93 8,100  Level Houston Center
07:47PM 30.1872 -95.7731 251° West 84 97 8,100  Level Houston Center
07:48PM 30.1850 -95.7950 263° West 82 94 8,100  Level Houston Center
07:49PM 30.1781 -95.8117 244° Southwest 81 93 8,100  Level Houston Center
07:49PM 30.1747 -95.8228 251° West 78 90 8,100  Level Houston Center
07:50PM 30.1728 -95.8425 263° West 82 94 8,100  Level Houston Center
07:50PM 30.1708 -95.8497 253° West 83 96 8,100 60 Level Houston Center
07:51PM 30.1686 -95.8717 263° West 77 89 8,200  Climbing Houston Center
07:52PM 30.1633 -95.8922 253° West 79 91 8,200 -60 Level Houston Center
07:53PM 30.1558 -95.9192 252° West 80 92 8,100 -60 Descending Houston Center
07:54PM 30.1508 -95.9403 255° West 78 90 8,100  Level Houston Center
07:55PM 30.1472 -95.9636 260° West 77 89 8,200  Climbing Houston Center
07:56PM 30.1422 -95.9886 257° West 77 89 8,200  Level Houston Center
07:57PM 30.1356 -96.0194 256° West 81 93 8,200  Level Houston Center
07:58PM 30.1300 -96.0431 255° West 82 94 8,200  Level Houston Center
07:59PM 30.1231 -96.0681 252° West 82 94 8,200  Level Houston Center
08:00PM 30.1164 -96.0925 253° West 82 94 8,200  Level Houston Center
08:01PM 30.1097 -96.1175 253° West 82 94 8,200  Level Houston Center
08:02PM 30.1031 -96.1483 256° West 83 96 8,200  Level Houston Center
08:03PM 30.0981 -96.1744 258° West 82 94 8,200  Level Houston Center
08:04PM 30.0919 -96.2017 255° West 80 92 8,200  Level Houston Center
08:05PM 30.0861 -96.2228 252° West 80 92 8,200  Level Houston Center
08:06PM 30.0814 -96.2511 259° West 82 94 8,200  Level Houston Center
08:07PM 30.0764 -96.2736 256° West 81 93 8,200  Level Houston Center
08:08PM 30.0678 -96.2972 247° West 81 93 8,200 -60 Level Houston Center
08:09PM 30.0628 -96.3278 259° West 81 93 8,100 -60 Descending Houston Center
08:10PM 30.0586 -96.3525 259° West 81 93 8,100 -60 Level Houston Center
08:11PM 30.0522 -96.3772 253° West 82 94 8,000  Descending Houston Center
08:12PM 30.0461 -96.4044 255° West 75 86 8,100  Climbing Houston Center
08:13PM 30.0417 -96.4267 257° West 73 84 8,100  Level Houston Center
08:15PM 30.0331 -96.4494 246° West 71 82 8,100  Level Houston Center
08:16PM 30.0286 -96.4714 257° West 74 85 8,100  Level Houston Center
08:17PM 30.0264 -96.4911 263° West 74 85 8,200  Climbing Houston Center
08:18PM 30.0200 -96.5183 255° West 71 82 8,100  Descending Houston Center
08:19PM 30.0167 -96.5406 260° West 74 85 8,200  Climbing Houston Center
08:19PM 30.0131 -96.5625 259° West 72 83 8,100  Descending Houston Center
08:20PM 30.0111 -96.5631 194° South 73 84 8,200 -120 Climbing Houston Center
08:21PM 30.0089 -96.5894 264° West 78 90 8,000 -120 Descending Houston Center
08:22PM 30.0064 -96.6089 262° West 74 85 8,000 60 Level Houston Center
08:22PM 30.0072 -96.6111 293° West 76 87 8,100  Climbing Houston Center
08:23PM 30.0022 -96.6358 257° West 72 83 8,000 -60 Descending Houston Center
08:24PM 29.9981 -96.6603 259° West 74 85 8,000  Level Houston Center
08:25PM 29.9914 -96.6828 251° West 74 85 8,100 60 Climbing Houston Center
08:26PM 29.9886 -96.7083 263° West 74 85 8,200 -60 Climbing Houston Center
08:27PM 29.9864 -96.7242 261° West 75 86 8,000 -120 Descending Houston Center
08:27PM 29.9878 -96.7317 282° West 75 86 8,100 60 Climbing Houston Center
08:28PM 29.9822 -96.7489 250° West 73 84 8,100 60 Level Houston Center
08:28PM 29.9806 -96.7536 248° West 74 85 8,200 60 Climbing Houston Center
08:29PM 29.9764 -96.7761 258° West 74 85 8,200 -60 Level Houston Center
08:30PM 29.9711 -96.7933 251° West 72 83 8,100  Descending Houston Center
08:30PM 29.9706 -96.7978 262° West 74 85 8,200  Climbing Houston Center
08:31PM 29.9647 -96.8181 252° West 75 86 8,100  Descending Houston Center
08:31PM 29.9644 -96.8211 264° West 73 84 8,200 -120 Climbing Houston Center
08:32PM 29.9561 -96.8408 244° Southwest 77 89 8,000 -120 Descending Houston Center
08:32PM 29.9561 -96.8439 270° West 78 90 8,100 -240 Climbing Houston Center
08:33PM 29.9497 -96.8656 251° West 83 96 7,800 -420 Descending Houston Center
08:33PM 29.9492 -96.8769 267° West 85 98 7,700 -420 Descending Houston Center
08:34PM 29.9458 -96.8972 259° West 93 107 7,400 -420 Descending Houston Center
08:34PM 29.9464 -96.9067 274° West 90 104 7,300 -600 Descending Houston Center
08:35PM 29.9444 -96.9311 265° West 99 114 6,800 -540 Descending Houston Center
08:35PM 29.9456 -96.9386 280° West 98 113 6,800 -480 Level Houston Center
08:36PM 29.9400 -96.9556 249° West 94 108 6,400 -540 Descending Houston Center
08:36PM 29.9403 -96.9683 271° West 98 113 6,300 -420 Descending Houston Center
08:37PM 29.9361 -96.9872 256° West 100 115 6,000 -240 Descending Houston Center
08:37PM 29.9353 -96.9972 265° West 97 112 6,100  Climbing Houston Center
08:38PM 29.9303 -97.0167 253° West 82 94 6,000  Descending Houston Center
08:38PM 29.9311 -97.0244 277° West 91 105 6,100 180 Climbing Houston Center
08:39PM 29.9278 -97.0411 257° West 79 91 6,200 60 Climbing Houston Center
08:40PM 29.9236 -97.0656 259° West 81 93 6,200 -60 Level Houston Center
08:41PM 29.9175 -97.0975 258° West 87 100 6,100 -60 Descending Houston Center
08:42PM 29.9133 -97.1219 259° West 87 100 6,100 -120 Level Houston Center
08:45PM 29.8978 -97.1972 272° West 85 98 5,800 -240 Descending Houston Center
08:46PM 29.8900 -97.2264 253° West 89 102 5,400 -420 Descending Houston Center
08:47PM 29.8844 -97.2550 257° West 91 105 5,000 -420 Descending Houston Center
08:48PM 29.8769 -97.2839 253° West 91 105 4,600 -480 Descending Houston Center
08:49PM 29.8692 -97.3125 253° West 92 106 4,100 -300 Descending Houston Center
08:50PM 29.8575 -97.3436 247° West 92 106 4,000 -60 Descending Houston Center
08:51PM 29.8478 -97.3683 246° West 88 101 4,000  Level Houston Center
08:52PM 29.8417 -97.3967 256° West 88 101 4,000  Level Houston Center
08:53PM 29.8389 -97.4278 264° West 94 108 4,000  Level Houston Center
08:54PM 29.8314 -97.4542 252° West 94 108 4,000  Level Houston Center
08:55PM 29.8217 -97.4778 245° Southwest 85 98 4,000  Level Houston Center
08:56PM 29.8153 -97.5056 255° West 85 98 4,000 -60 Level Houston Center
08:57PM 29.8100 -97.5356 259° West 91 105 3,900  Descending Houston Center
08:58PM 29.8053 -97.5633 259° West 91 105 4,000  Climbing Houston Center
08:59PM 29.8008 -97.5900 259° West 90 104 4,000  Level Houston Center
09:00PM 29.7944 -97.6222 257° West 88 101 4,000  Level Houston Center
09:00PM 29.7903 -97.6319 244° Southwest 90 104 4,000  Level Houston Center
09:01PM 29.7889 -97.6394 258° West 88 101 4,000  Level Houston Center
09:01PM 29.7886 -97.6497 268° West 88 101 4,000  Level Houston Center
09:02PM 29.7856 -97.6689 260° West 89 102 4,000  Level Houston Center
09:02PM 29.7853 -97.6778 268° West 88 101 4,000  Level Houston Center
09:03PM 29.7842 -97.6978 266° West 91 105 4,000  Level Houston Center
09:03PM 29.7850 -97.7072 276° West 89 102 4,000  Level Houston Center
09:04PM 29.7783 -97.7253 247° West 92 106 4,000 -120 Level Houston Center
09:04PM 29.7775 -97.7353 265° West 90 104 3,900  Descending Houston Center
09:05PM 29.7725 -97.7525 252° West 86 99 4,000  Climbing Houston Center
09:05PM 29.7744 -97.7631 282° West 89 102 3,900  Descending Houston Center
09:06PM 29.7839 -97.7822 300° West 107 123 4,000 60 Climbing Houston Center
09:06PM 29.7889 -97.7917 301° West 98 113 4,000  Level Houston Center
09:07PM 29.7978 -97.8167 292° West 102 117 4,000  Level Houston Center
09:07PM 29.8019 -97.8250 300° West 101 116 4,000  Level Houston Center
09:08PM 29.8092 -97.8489 289° West 100 115 4,000  Level Houston Center
09:08PM 29.8128 -97.8542 308° West 101 116 4,000  Level Houston Center
09:09PM 29.8181 -97.8742 287° West 97 112 4,000  Level Houston Center
09:09PM 29.8233 -97.8839 302° West 100 115 4,000  Level Houston Center
09:10PM 29.8292 -97.9017 291° West 97 112 4,000  Level Houston Center
09:10PM 29.8322 -97.9122 288° West 98 113 4,000  Level Houston Center
09:11PM 29.8383 -97.9319 290° West 98 113 4,000  Level Houston Center
09:11PM 29.8422 -97.9422 294° West 98 113 4,000  Level Houston Center
09:12PM 29.8472 -97.9597 288° West 98 113 4,000 -240 Level Houston Center
09:12PM 29.8550 -97.9731 304° West 98 113 3,800 -540 Descending Houston Center
09:13PM 29.8608 -97.9917 290° West 110 127 3,500 -540 Descending Houston Center
09:13PM 29.8669 -98.0064 296° West 108 124 3,300 -420 Descending Houston Center
09:14PM 29.8725 -98.0264 288° West 115 132 3,100 -300 Descending Houston Center
09:14PM 29.8786 -98.0406 296° West 112 129 3,000 -120 Descending Houston Center
09:15PM 29.8839 -98.0589 288° West 113 130 3,000  Level Houston Center
09:15PM 29.8875 -98.0733 286° West 111 128 3,000 -120 Level Houston Center
09:16PM 29.8728 -98.0747 185° South 80 92 2,900 -120 Descending Houston Center
09:16PM 29.8661 -98.0767 194° South 79 91 2,900  Level Houston Center
09:17PM 29.8561 -98.0767 180° South 66 76 2,900 -120 Level Houston Center
09:17PM 29.8450 -98.0775 184° South 73 84 2,800 -180 Descending Houston Center
09:18PM 29.8294 -98.0781 182° South 73 84 2,700 -120 Descending Houston Center